Time;durP1;ratioP1;P1;durP2;ratioP2;P2;SDS_P1;SDS_P2;PMS_P1;PMS_P2;Temp;Humidity;BMP_temperature;BMP_pressure;BME280_temperature;BME280_humidity;BME280_pressure;Samples;Min_cycle;Max_cycle;Signal;HPM_P1;HPM_P2
2023/04/22 00:02:07;;;;;;;9.27;7.13;;;;;;;;;;5002248;28;20049;-62
2023/04/22 00:04:33;;;;;;;9.77;7.03;;;18.80;79.30;;;;;;5013805;28;20099;-62
2023/04/22 00:06:59;;;;;;;10.70;7.32;;;19.00;79.60;;;;;;5011941;28;20046;-62
2023/04/22 00:09:25;;;;;;;10.40;7.65;;;18.70;79.40;;;;;;5003975;28;20515;-63
2023/04/22 00:11:51;;;;;;;9.93;7.38;;;18.80;79.50;;;;;;5009375;28;20049;-62
2023/04/22 00:14:17;;;;;;;9.05;6.88;;;18.80;79.60;;;;;;4997236;28;20089;-61
2023/04/22 00:16:43;;;;;;;10.05;6.78;;;;;;;;;;5001405;28;20092;-64
2023/04/22 00:19:09;;;;;;;9.15;7.10;;;18.60;79.40;;;;;;5009504;28;20050;-62
2023/04/22 00:21:35;;;;;;;9.75;7.05;;;;;;;;;;5009674;28;20050;-63
2023/04/22 00:24:01;;;;;;;12.25;7.97;;;18.80;79.60;;;;;;5011694;28;20068;-63
2023/04/22 00:26:28;;;;;;;10.40;7.72;;;;;;;;;;5012542;28;20045;-62
2023/04/22 00:28:54;;;;;;;9.50;7.35;;;;;;;;;;5007639;28;20096;-63
2023/04/22 00:31:20;;;;;;;9.05;6.95;;;;;;;;;;5010553;28;20192;-63
2023/04/22 00:33:46;;;;;;;9.77;7.00;;;18.80;79.10;;;;;;5006959;28;20038;-61
2023/04/22 00:36:11;;;;;;;10.70;7.65;;;19.00;79.80;;;;;;5011417;28;20064;-62
2023/04/22 00:38:37;;;;;;;10.00;7.03;;;18.60;79.60;;;;;;5011513;28;20092;-62
2023/04/22 00:41:03;;;;;;;10.85;7.25;;;19.00;77.60;;;;;;5008694;28;20483;-62
2023/04/22 00:43:29;;;;;;;9.18;7.07;;;18.60;76.20;;;;;;5009694;28;20063;-63
2023/04/22 00:45:56;;;;;;;9.18;7.40;;;19.00;77.10;;;;;;5008832;28;20054;-61
2023/04/22 00:48:23;;;;;;;10.15;7.32;;;18.80;76.20;;;;;;5013320;28;20041;-61
2023/04/22 00:50:49;;;;;;;10.27;7.30;;;18.80;76.40;;;;;;4995497;28;20053;-62
2023/04/22 00:53:15;;;;;;;10.60;7.43;;;;;;;;;;5012841;28;20049;-62
2023/04/22 00:55:41;;;;;;;10.25;8.00;;;;;;;;;;5011623;28;20121;-62
2023/04/22 00:58:07;;;;;;;10.48;7.43;;;18.70;79.70;;;;;;4999641;28;20054;-64
2023/04/22 01:00:32;;;;;;;8.85;7.00;;;18.70;79.70;;;;;;4994788;28;20116;-62
2023/04/22 01:02:59;;;;;;;10.18;7.63;;;;;;;;;;4994589;28;20428;-62
2023/04/22 01:05:25;;;;;;;8.70;7.38;;;;;;;;;;5011234;28;20045;-66
2023/04/22 01:07:51;;;;;;;12.23;7.53;;;18.80;79.90;;;;;;5012757;28;20088;-61
2023/04/22 01:10:17;;;;;;;10.43;7.30;;;18.90;79.90;;;;;;5013021;28;20096;-62
2023/04/22 01:12:43;;;;;;;10.10;7.15;;;18.90;79.90;;;;;;5011465;28;20074;-62
2023/04/22 01:15:10;;;;;;;9.52;7.15;;;18.90;76.50;;;;;;5026279;28;20149;-61
2023/04/22 01:17:36;;;;;;;9.65;6.93;;;;;;;;;;5009354;28;20045;-65
2023/04/22 01:20:04;;;;;;;8.93;7.15;;;18.80;79.00;;;;;;5008081;28;20073;-62
2023/04/22 01:22:36;;;;;;;10.95;7.43;;;19.00;75.20;;;;;;5008503;28;20038;-63
2023/04/22 01:25:02;;;;;;;9.25;7.07;;;18.80;79.50;;;;;;5009151;28;20043;-61
2023/04/22 01:27:28;;;;;;;9.32;7.40;;;;;;;;;;5008537;28;20403;-64
2023/04/22 01:29:54;;;;;;;11.38;7.43;;;18.80;76.40;;;;;;5009811;28;20120;-63
2023/04/22 01:32:19;;;;;;;10.68;7.75;;;18.90;80.00;;;;;;5007131;28;20185;-61
2023/04/22 01:34:45;;;;;;;11.55;7.20;;;18.70;80.00;;;;;;5010194;28;20045;-61
2023/04/22 01:37:11;;;;;;;9.77;7.63;;;;;;;;;;5007794;28;20488;-63
2023/04/22 01:39:37;;;;;;;9.20;7.00;;;;;;;;;;5011233;28;20052;-63
2023/04/22 01:42:03;;;;;;;9.85;7.47;;;18.90;80.10;;;;;;5005217;28;20400;-63
2023/04/22 01:44:30;;;;;;;10.35;7.45;;;;;;;;;;5009086;28;20046;-62
2023/04/22 01:46:55;;;;;;;9.48;6.93;;;18.80;79.90;;;;;;5005702;28;20116;-62
2023/04/22 01:49:21;;;;;;;9.02;7.25;;;19.00;80.20;;;;;;5014472;28;20050;-61
2023/04/22 01:51:47;;;;;;;10.32;7.82;;;;;;;;;;5003684;28;20116;-64
2023/04/22 01:54:13;;;;;;;9.57;7.45;;;;;;;;;;5013037;28;20404;-64
2023/04/22 01:56:40;;;;;;;9.15;7.55;;;18.90;78.90;;;;;;5016321;28;20550;-62
2023/04/22 01:59:06;;;;;;;10.88;7.68;;;18.80;80.10;;;;;;5010439;28;20046;-62
2023/04/22 02:01:32;;;;;;;8.90;7.22;;;;;;;;;;5014801;28;20061;-63
2023/04/22 02:03:58;;;;;;;14.60;8.52;;;18.80;78.10;;;;;;5015949;28;20042;-62
2023/04/22 02:06:24;;;;;;;8.93;7.22;;;18.80;80.20;;;;;;5016329;28;20041;-62
2023/04/22 02:08:50;;;;;;;9.20;7.25;;;18.80;80.10;;;;;;5009009;28;20072;-61
2023/04/22 02:11:16;;;;;;;9.63;7.38;;;18.70;80.10;;;;;;5015860;28;20077;-61
2023/04/22 02:13:42;;;;;;;8.82;7.22;;;18.70;80.10;;;;;;5026907;28;20104;-63
2023/04/22 02:16:08;;;;;;;9.70;7.78;;;18.40;80.00;;;;;;5015764;28;20053;-62
2023/04/22 02:18:34;;;;;;;11.32;8.07;;;18.80;80.20;;;;;;5014963;28;20408;-61
2023/04/22 02:20:59;;;;;;;10.20;7.90;;;18.80;80.20;;;;;;5015581;28;20057;-62
2023/04/22 02:23:25;;;;;;;10.55;8.23;;;18.50;80.00;;;;;;5007716;28;20057;-62
2023/04/22 02:25:51;;;;;;;11.27;7.80;;;18.60;80.10;;;;;;5013631;28;20053;-62
2023/04/22 02:28:17;;;;;;;10.10;7.40;;;18.80;76.80;;;;;;5009108;28;20437;-63
2023/04/22 02:30:44;;;;;;;11.18;8.05;;;18.80;80.30;;;;;;5018353;28;20054;-62
2023/04/22 02:33:10;;;;;;;9.68;7.25;;;18.70;78.30;;;;;;5000342;28;20071;-63
2023/04/22 02:35:35;;;;;;;11.20;8.23;;;18.80;77.20;;;;;;5012563;28;20484;-64
2023/04/22 02:38:01;;;;;;;11.32;8.05;;;18.60;80.00;;;;;;5014433;28;20046;-62
2023/04/22 02:40:28;;;;;;;10.77;7.32;;;;;;;;;;5009907;28;20050;-66
2023/04/22 02:42:54;;;;;;;11.82;7.72;;;18.60;76.80;;;;;;5015663;28;20420;-67
2023/04/22 02:45:20;;;;;;;10.63;7.85;;;18.80;79.50;;;;;;5003957;28;20501;-63
2023/04/22 02:47:46;;;;;;;10.38;7.93;;;18.40;80.00;;;;;;5007008;28;20137;-62
2023/04/22 02:50:12;;;;;;;10.48;7.30;;;18.60;80.10;;;;;;5012312;28;20046;-62
2023/04/22 02:52:38;;;;;;;9.35;7.82;;;18.70;80.20;;;;;;4995664;28;20053;-62
2023/04/22 02:55:04;;;;;;;10.75;7.95;;;18.90;77.90;;;;;;5013233;28;20053;-63
2023/04/22 02:57:30;;;;;;;9.88;7.57;;;;;;;;;;5012968;28;20112;-64
2023/04/22 02:59:56;;;;;;;9.80;7.55;;;18.90;77.50;;;;;;5010346;28;20044;-62
2023/04/22 03:02:22;;;;;;;10.43;8.32;;;18.60;80.10;;;;;;5007613;28;20061;-62
2023/04/22 03:04:48;;;;;;;10.65;8.43;;;;;;;;;;5012819;28;20100;-64
2023/04/22 03:07:14;;;;;;;12.63;8.02;;;18.70;80.00;;;;;;5012638;28;20050;-62
2023/04/22 03:09:40;;;;;;;10.95;8.35;;;;;;;;;;5013856;28;20065;-63
2023/04/22 03:12:05;;;;;;;9.73;7.93;;;18.40;80.00;;;;;;5012523;28;20423;-61
2023/04/22 03:14:31;;;;;;;10.38;7.93;;;18.50;80.00;;;;;;5010382;28;20045;-61
2023/04/22 03:16:57;;;;;;;12.25;8.13;;;18.70;80.10;;;;;;5012621;28;20049;-63
2023/04/22 03:19:23;;;;;;;10.60;7.50;;;;;;;;;;5008416;28;20037;-62
2023/04/22 03:21:49;;;;;;;10.20;8.25;;;18.30;79.90;;;;;;5012198;28;20399;-63
2023/04/22 03:24:15;;;;;;;10.68;8.32;;;;;;;;;;5008578;28;20053;-64
2023/04/22 03:26:41;;;;;;;11.32;7.43;;;;;;;;;;5011828;28;20057;-64
2023/04/22 03:29:07;;;;;;;10.20;8.27;;;;;;;;;;4998056;28;20056;-63
2023/04/22 03:31:33;;;;;;;11.85;8.48;;;;;;;;;;5012856;28;20396;-61
2023/04/22 03:34:00;;;;;;;12.05;8.00;;;;;;;;;;5012006;28;20099;-63
2023/04/22 03:36:27;;;;;;;9.65;7.53;;;18.60;76.70;;;;;;5004995;28;20532;-61
2023/04/22 03:38:52;;;;;;;9.98;8.13;;;18.50;79.90;;;;;;5009639;28;20042;-62
2023/04/22 03:41:18;;;;;;;11.10;7.72;;;18.40;79.80;;;;;;5011591;28;20065;-62
2023/04/22 03:43:44;;;;;;;12.70;7.72;;;;;;;;;;5008638;28;20065;-60
2023/04/22 03:46:10;;;;;;;10.65;8.20;;;18.70;80.00;;;;;;5007600;28;20077;-63
2023/04/22 03:48:36;;;;;;;11.10;8.05;;;18.40;79.90;;;;;;5011010;28;20042;-62
2023/04/22 03:51:02;;;;;;;12.02;8.32;;;;;;;;;;5013197;28;20095;-64
2023/04/22 03:53:28;;;;;;;12.40;8.50;;;;;;;;;;4985017;28;20064;-67
2023/04/22 03:55:54;;;;;;;10.05;8.02;;;;;;;;;;5000786;28;20400;-67
2023/04/22 03:58:20;;;;;;;11.93;7.90;;;18.40;79.90;;;;;;5013823;28;20042;-67
2023/04/22 04:00:46;;;;;;;10.50;7.72;;;18.40;79.80;;;;;;5014414;28;20128;-66
2023/04/22 04:03:12;;;;;;;10.00;7.90;;;;;;;;;;5012364;28;20096;-67
2023/04/22 04:05:37;;;;;;;10.45;8.52;;;18.30;79.80;;;;;;5014079;28;20042;-67
2023/04/22 04:08:04;;;;;;;12.60;8.52;;;;;;;;;;5012514;28;20050;-66
2023/04/22 04:10:29;;;;;;;18.60;8.23;;;18.40;79.10;;;;;;5013496;28;20046;-67
2023/04/22 04:12:55;;;;;;;11.13;9.35;;;18.50;79.90;;;;;;5027297;28;20049;-63
2023/04/22 04:15:21;;;;;;;11.88;8.38;;;18.30;79.80;;;;;;4996913;28;20050;-64
2023/04/22 04:17:47;;;;;;;12.25;8.20;;;18.20;79.60;;;;;;5013899;28;20491;-67
2023/04/22 04:20:14;;;;;;;10.43;8.10;;;18.30;76.30;;;;;;5013821;28;20095;-64
2023/04/22 04:22:40;;;;;;;11.82;8.30;;;18.30;79.70;;;;;;5012399;28;20120;-63
2023/04/22 04:25:07;;;;;;;11.63;8.30;;;18.00;79.50;;;;;;5011554;28;20447;-62
2023/04/22 04:27:33;;;;;;;10.05;8.40;;;18.40;79.70;;;;;;5009256;28;20068;-62
2023/04/22 04:29:59;;;;;;;10.80;8.32;;;;;;;;;;5011503;28;20060;-64
2023/04/22 04:32:26;;;;;;;10.45;8.23;;;;;;;;;;5013284;28;20049;-63
2023/04/22 04:34:52;;;;;;;11.35;8.65;;;18.10;77.00;;;;;;4991815;28;20050;-62
2023/04/22 04:37:18;;;;;;;10.63;8.68;;;;;;;;;;5008721;28;20045;-63
2023/04/22 04:39:44;;;;;;;10.80;8.65;;;;;;;;;;5012113;28;20487;-62
2023/04/22 04:42:11;;;;;;;11.73;8.48;;;18.00;79.30;;;;;;5008226;28;20129;-62
2023/04/22 04:44:37;;;;;;;10.77;8.10;;;;;;;;;;5007062;28;20049;-62
2023/04/22 04:47:04;;;;;;;11.20;8.70;;;;;;;;;;5009458;28;20054;-62
2023/04/22 04:49:30;;;;;;;9.90;8.43;;;18.20;79.60;;;;;;5010615;28;20486;-63
2023/04/22 04:52:00;;;;;;;12.25;9.00;;;18.40;79.70;;;;;;5010400;28;20050;-64
2023/04/22 04:54:26;;;;;;;13.63;8.80;;;;;;;;;;5011008;28;20042;-63
2023/04/22 04:56:52;;;;;;;10.60;7.80;;;18.30;79.40;;;;;;5010823;28;20054;-66
2023/04/22 04:59:17;;;;;;;10.90;8.43;;;18.50;78.40;;;;;;4997428;28;20043;-65
2023/04/22 05:01:43;;;;;;;10.80;8.18;;;18.50;78.10;;;;;;4993763;28;20038;-63
2023/04/22 05:04:10;;;;;;;9.63;8.13;;;;;;;;;;5008132;28;20056;-63
2023/04/22 05:06:36;;;;;;;11.93;8.63;;;18.50;79.10;;;;;;5009746;28;20507;-64
2023/04/22 05:09:02;;;;;;;11.43;8.52;;;;;;;;;;5009778;28;20049;-64
2023/04/22 05:11:28;;;;;;;9.95;8.52;;;18.60;79.00;;;;;;5009776;28;20045;-62
2023/04/22 05:13:54;;;;;;;12.45;9.00;;;;;;;;;;5011407;28;20037;-62
2023/04/22 05:16:20;;;;;;;9.75;7.63;;;;;;;;;;5010125;28;20048;-64
2023/04/22 05:18:46;;;;;;;10.25;8.07;;;18.50;78.90;;;;;;4998509;28;20045;-63
2023/04/22 05:21:12;;;;;;;10.75;8.15;;;18.70;78.40;;;;;;5011342;28;20041;-62
2023/04/22 05:23:38;;;;;;;10.43;8.30;;;;;;;;;;4994808;28;20426;-62
2023/04/22 05:26:04;;;;;;;10.98;8.93;;;;;;;;;;5000355;28;20045;-64
2023/04/22 05:28:31;;;;;;;11.48;8.15;;;18.80;76.90;;;;;;5006751;28;20043;-70
2023/04/22 05:30:57;;;;;;;11.48;8.52;;;18.70;75.90;;;;;;5007636;28;20054;-62
2023/04/22 05:33:23;;;;;;;10.18;8.70;;;18.60;78.30;;;;;;5010523;28;20041;-61
2023/04/22 05:35:51;;;;;;;10.73;8.30;;;;;;;;;;5004850;28;20464;-66
2023/04/22 05:38:17;;;;;;;10.63;8.43;;;;;;;;;;5006925;28;20054;-67
2023/04/22 05:40:43;;;;;;;13.07;7.97;;;18.70;78.40;;;;;;5008799;28;20053;-67
2023/04/22 05:43:08;;;;;;;12.18;8.20;;;18.70;78.60;;;;;;5010959;28;20062;-67
2023/04/22 05:45:34;;;;;;;10.32;8.15;;;18.70;78.60;;;;;;5009346;28;20048;-63
2023/04/22 05:48:00;;;;;;;10.00;8.18;;;18.70;78.60;;;;;;5005524;28;20342;-61
2023/04/22 05:50:26;;;;;;;11.20;8.68;;;18.90;78.60;;;;;;4994806;28;20053;-61
2023/04/22 05:52:52;;;;;;;11.80;8.00;;;19.00;75.40;;;;;;5003364;28;20064;-61
2023/04/22 05:55:18;;;;;;;11.65;8.65;;;19.20;78.70;;;;;;5001787;28;20080;-65
2023/04/22 05:57:43;;;;;;;10.85;8.15;;;19.10;78.60;;;;;;4992414;28;20050;-65
2023/04/22 06:00:09;;;;;;;12.02;8.55;;;19.20;78.60;;;;;;4992933;28;20065;-65
2023/04/22 06:02:36;;;;;;;9.98;7.97;;;;;;;;;;5007049;28;20081;-65
2023/04/22 06:05:01;;;;;;;10.75;7.82;;;19.40;78.50;;;;;;5006189;28;20042;-65
2023/04/22 06:07:27;;;;;;;13.52;8.80;;;;;;;;;;5011965;28;20076;-71
2023/04/22 06:09:53;;;;;;;10.70;8.18;;;19.10;75.70;;;;;;5009755;28;20056;-65
2023/04/22 06:12:19;;;;;;;13.85;8.68;;;18.80;78.30;;;;;;5012475;28;20046;-66
2023/04/22 06:14:45;;;;;;;9.90;7.85;;;19.20;78.50;;;;;;5012045;28;20045;-64
2023/04/22 06:17:11;;;;;;;10.82;8.38;;;;;;;;;;5001972;28;20046;-65
2023/04/22 06:19:37;;;;;;;10.52;8.68;;;;;;;;;;5000464;28;20801;-68
2023/04/22 06:22:03;;;;;;;11.23;7.95;;;19.10;78.50;;;;;;5004219;28;20148;-63
2023/04/22 06:24:29;;;;;;;10.07;8.02;;;19.20;78.60;;;;;;5009439;28;20113;-65
2023/04/22 06:26:56;;;;;;;10.50;8.50;;;19.10;78.60;;;;;;5001675;28;20054;-66
2023/04/22 06:29:23;;;;;;;12.65;8.52;;;19.20;78.80;;;;;;5007741;28;20124;-64
2023/04/22 06:31:49;;;;;;;10.93;8.38;;;;;;;;;;5003841;28;20046;-66
2023/04/22 06:34:15;;;;;;;9.73;8.02;;;18.80;78.60;;;;;;4998041;28;20041;-65
2023/04/22 06:36:41;;;;;;;10.65;8.38;;;19.30;78.90;;;;;;5008002;28;20077;-68
2023/04/22 06:39:09;;;;;;;10.95;8.40;;;19.00;78.00;;;;;;5009671;28;20124;-67
2023/04/22 06:41:35;;;;;;;12.23;8.38;;;;;;;;;;5003434;28;20112;-63
2023/04/22 06:44:01;;;;;;;10.63;8.25;;;;;;;;;;5005831;28;20046;-66
2023/04/22 06:46:27;;;;;;;11.20;8.57;;;;;;;;;;5010916;28;20058;-65
2023/04/22 06:48:53;;;;;;;11.05;8.27;;;;;;;;;;5001997;28;20042;-65
2023/04/22 06:51:19;;;;;;;9.90;7.93;;;19.10;77.80;;;;;;5009805;28;20092;-64
2023/04/22 06:53:45;;;;;;;11.52;8.40;;;;;;;;;;5006419;28;20038;-65
2023/04/22 06:56:11;;;;;;;11.27;8.65;;;19.30;79.00;;;;;;4995422;28;20105;-64
2023/04/22 06:58:37;;;;;;;10.38;7.80;;;19.50;79.10;;;;;;5008867;28;20038;-65
2023/04/22 07:01:03;;;;;;;10.80;8.73;;;;;;;;;;5012774;28;20133;-63
2023/04/22 07:03:29;;;;;;;10.55;8.10;;;;;;;;;;4997166;28;20046;-62
2023/04/22 07:05:55;;;;;;;10.27;8.05;;;;;;;;;;4995567;28;20145;-64
2023/04/22 07:08:21;;;;;;;10.57;8.02;;;19.40;75.90;;;;;;4993848;28;20400;-66
2023/04/22 07:10:47;;;;;;;9.40;7.90;;;;;;;;;;5003118;28;20126;-65
2023/04/22 07:13:13;;;;;;;10.48;7.75;;;;;;;;;;5013673;28;20057;-67
2023/04/22 07:15:39;;;;;;;12.02;8.73;;;19.70;79.20;;;;;;5014771;28;20049;-63
2023/04/22 07:18:05;;;;;;;10.80;8.27;;;19.50;76.70;;;;;;5009991;28;20054;-64
2023/04/22 07:20:31;;;;;;;14.32;9.05;;;19.40;79.00;;;;;;5013546;28;20184;-61
2023/04/22 07:22:57;;;;;;;10.93;8.52;;;;;;;;;;5010999;28;20053;-61
2023/04/22 07:25:23;;;;;;;11.60;7.88;;;19.60;79.10;;;;;;5013363;28;20046;-64
2023/04/22 07:27:49;;;;;;;9.32;7.57;;;;;;;;;;5008922;28;20129;-65
2023/04/22 07:30:15;;;;;;;10.32;7.93;;;19.60;78.90;;;;;;5006524;28;20057;-64
2023/04/22 07:32:41;;;;;;;10.73;8.05;;;;;;;;;;5009805;28;20049;-65
2023/04/22 07:35:07;;;;;;;9.75;7.60;;;19.50;78.10;;;;;;5007779;28;20049;-66
2023/04/22 07:37:33;;;;;;;10.68;8.07;;;;;;;;;;5005424;28;20998;-64
2023/04/22 07:39:59;;;;;;;12.00;8.23;;;19.70;79.20;;;;;;5004147;28;20058;-62
2023/04/22 07:42:25;;;;;;;10.68;7.60;;;20.00;79.60;;;;;;5006688;28;20068;-64
2023/04/22 07:44:51;;;;;;;11.15;7.47;;;;;;;;;;4994333;28;20046;-63
2023/04/22 07:47:17;;;;;;;13.20;8.00;;;19.80;77.40;;;;;;5002257;28;20084;-62
2023/04/22 07:49:44;;;;;;;10.18;7.95;;;;;;;;;;5012179;28;20125;-65
2023/04/22 07:52:10;;;;;;;11.95;8.32;;;19.80;79.20;;;;;;5012649;28;20056;-66
2023/04/22 07:54:35;;;;;;;11.48;8.00;;;19.80;77.10;;;;;;5009633;28;20038;-65
2023/04/22 07:57:02;;;;;;;10.23;7.75;;;;;;;;;;5009212;28;20061;-69
2023/04/22 07:59:28;;;;;;;12.35;7.60;;;;;;;;;;5000199;28;20101;-66
2023/04/22 08:01:54;;;;;;;10.77;7.38;;;19.90;79.20;;;;;;5001099;28;20140;-67
2023/04/22 08:04:21;;;;;;;11.15;7.75;;;20.10;75.90;;;;;;5012764;28;20503;-69
2023/04/22 08:06:47;;;;;;;9.80;8.15;;;19.90;77.30;;;;;;5011513;28;20053;-66
2023/04/22 08:09:13;;;;;;;9.43;6.82;;;20.10;78.70;;;;;;5001597;28;20042;-66
2023/04/22 08:11:39;;;;;;;12.35;7.47;;;;;;;;;;5010444;28;20076;-66
2023/04/22 08:14:05;;;;;;;10.27;7.78;;;20.10;79.10;;;;;;5011914;28;20129;-63
2023/04/22 08:16:31;;;;;;;11.00;7.43;;;19.90;76.50;;;;;;5005152;28;20197;-66
2023/04/22 08:18:57;;;;;;;11.55;7.45;;;;;;;;;;5004320;28;20041;-66
2023/04/22 08:21:23;;;;;;;11.07;7.30;;;;;;;;;;5003949;28;20061;-65
2023/04/22 08:23:49;;;;;;;9.60;6.80;;;;;;;;;;4991711;28;20050;-71
2023/04/22 08:26:15;;;;;;;9.65;6.65;;;20.30;79.00;;;;;;5004843;28;20057;-62
2023/04/22 08:28:43;;;;;;;9.52;6.80;;;20.40;79.00;;;;;;5002553;28;20381;-62
2023/04/22 08:31:10;;;;;;;9.50;6.85;;;;;;;;;;5006692;28;20049;-63
2023/04/22 08:33:36;;;;;;;13.20;6.90;;;20.50;79.10;;;;;;5002523;28;20499;-71
2023/04/22 08:36:02;;;;;;;9.93;6.90;;;20.40;78.90;;;;;;4998935;28;20047;-71
2023/04/22 08:38:28;;;;;;;9.85;6.35;;;;;;;;;;5004240;28;20050;-72
2023/04/22 08:40:55;;;;;;;10.02;6.45;;;20.30;78.20;;;;;;4999015;28;20522;-62
2023/04/22 08:43:21;;;;;;;8.20;6.22;;;20.50;78.80;;;;;;5008138;28;20566;-66
2023/04/22 08:45:47;;;;;;;10.65;6.57;;;;;;;;;;4995719;28;20086;-65
2023/04/22 08:48:13;;;;;;;8.85;6.28;;;20.50;78.60;;;;;;4978627;28;20056;-63
2023/04/22 08:50:39;;;;;;;8.93;5.82;;;;;;;;;;5009700;28;20049;-66
2023/04/22 08:53:05;;;;;;;10.63;6.43;;;20.80;77.60;;;;;;4995282;28;20104;-65
2023/04/22 08:55:31;;;;;;;8.40;6.07;;;20.90;76.80;;;;;;5009062;28;20491;-66
2023/04/22 08:57:59;;;;;;;9.15;6.22;;;20.70;78.40;;;;;;4993025;28;20059;-64
2023/04/22 09:00:25;;;;;;;12.23;5.95;;;;;;;;;;5006952;28;20037;-71
2023/04/22 09:02:51;;;;;;;9.68;5.28;;;21.10;75.80;;;;;;5007964;28;20041;-65
2023/04/22 09:05:17;;;;;;;6.78;5.05;;;;;;;;;;5010685;28;20511;-64
2023/04/22 09:07:43;;;;;;;12.52;6.47;;;21.20;78.40;;;;;;5005753;28;20049;-63
2023/04/22 09:10:10;;;;;;;12.68;6.05;;;21.10;78.30;;;;;;4990837;28;20049;-64
2023/04/22 09:12:36;;;;;;;13.50;6.20;;;;;;;;;;5011397;28;20081;-67
2023/04/22 09:15:03;;;;;;;8.93;5.50;;;;;;;;;;5008391;28;20042;-65
2023/04/22 09:17:32;;;;;;;11.07;5.53;;;21.10;73.90;;;;;;4997646;28;20057;-63
2023/04/22 09:19:59;;;;;;;18.48;5.55;;;21.50;78.40;;;;;;5001609;28;20038;-65
2023/04/22 09:22:26;;;;;;;9.95;5.43;;;22.20;76.00;;;;;;5010822;28;20380;-63
2023/04/22 09:24:52;;;;;;;10.07;5.30;;;;;;;;;;5010215;28;20046;-66
2023/04/22 09:27:20;;;;;;;12.05;5.00;;;;;;;;;;5010180;28;20056;-64
2023/04/22 09:29:49;;;;;;;8.13;5.18;;;21.60;73.50;;;;;;5011367;28;20092;-71
2023/04/22 09:32:15;;;;;;;8.75;5.38;;;21.60;78.20;;;;;;5009802;28;20105;-64
2023/04/22 09:34:59;;;;;;;9.68;5.30;;;21.80;78.30;;;;;;5007883;28;20127;-68
2023/04/22 09:37:25;;;;;;;13.07;5.90;;;21.90;78.20;;;;;;4990193;28;20057;-65
2023/04/22 09:39:51;;;;;;;12.30;5.25;;;21.80;78.20;;;;;;5010540;28;20081;-64
2023/04/22 09:42:18;;;;;;;9.00;5.32;;;;;;;;;;5006852;28;20384;-63
2023/04/22 09:44:46;;;;;;;10.45;5.20;;;21.80;78.20;;;;;;5010488;28;20433;-66
2023/04/22 09:47:12;;;;;;;9.57;5.20;;;;;;;;;;5007484;28;20046;-65
2023/04/22 09:49:38;;;;;;;7.65;4.60;;;21.90;78.20;;;;;;5009692;28;20037;-66
2023/04/22 09:52:04;;;;;;;8.35;4.75;;;22.00;78.20;;;;;;5007069;28;20034;-64
2023/04/22 09:54:30;;;;;;;7.25;4.80;;;;;;;;;;5008289;28;20120;-67
2023/04/22 09:56:57;;;;;;;7.47;4.68;;;;;;;;;;5009008;28;20591;-70
2023/04/22 09:59:24;;;;;;;7.50;4.88;;;22.20;74.80;;;;;;5010584;28;20081;-67
2023/04/22 10:01:52;;;;;;;7.03;4.40;;;22.10;78.10;;;;;;5002695;28;20192;-68
2023/04/22 10:04:20;;;;;;;8.45;4.55;;;;;;;;;;5007473;28;20119;-68
2023/04/22 10:06:48;;;;;;;8.73;4.75;;;22.10;78.10;;;;;;5010194;28;20049;-64
2023/04/22 10:09:17;;;;;;;6.90;4.53;;;22.10;74.80;;;;;;4993525;28;20050;-69
2023/04/22 10:11:43;;;;;;;6.90;4.70;;;22.10;77.20;;;;;;5014088;28;20081;-65
2023/04/22 10:14:13;;;;;;;7.35;4.18;;;22.10;76.20;;;;;;5002739;28;20144;-64
2023/04/22 10:16:39;;;;;;;8.05;4.65;;;;;;;;;;5003571;28;20054;-72
2023/04/22 10:19:06;;;;;;;7.05;4.28;;;22.20;78.00;;;;;;5011110;28;20049;-63
2023/04/22 10:21:31;;;;;;;6.72;4.60;;;22.10;77.80;;;;;;5012918;28;20038;-64
2023/04/22 10:23:58;;;;;;;8.98;5.00;;;;;;;;;;5008288;28;20049;-65
2023/04/22 10:26:47;;;;;;;8.35;4.63;;;22.30;77.80;;;;;;5013836;28;20037;-66
2023/04/22 10:29:15;;;;;;;9.23;4.22;;;22.30;76.30;;;;;;5011039;28;20046;-65
2023/04/22 10:31:50;;;;;;;6.82;4.45;;;22.40;77.80;;;;;;5014615;28;20049;-64
2023/04/22 10:34:16;;;;;;;9.73;4.32;;;22.10;77.40;;;;;;5001587;28;20050;-63
2023/04/22 10:36:58;;;;;;;6.85;4.25;;;22.10;77.50;;;;;;4976791;28;20378;-64
2023/04/22 10:39:24;;;;;;;8.88;4.00;;;22.30;77.60;;;;;;4997410;28;20388;-64
2023/04/22 10:41:54;;;;;;;9.05;4.30;;;22.30;77.60;;;;;;4998128;28;20050;-65
2023/04/22 10:44:21;;;;;;;9.55;3.83;;;22.30;74.70;;;;;;4993567;28;20097;-65
2023/04/22 10:46:51;;;;;;;8.18;4.75;;;22.30;72.70;;;;;;4974738;28;20054;-65
2023/04/22 10:49:19;;;;;;;9.23;3.97;;;22.40;74.30;;;;;;5009164;28;20404;-63
2023/04/22 10:51:52;;;;;;;12.43;4.40;;;22.10;77.50;;;;;;4996476;28;20086;-63
2023/04/22 10:54:45;;;;;;;7.47;4.40;;;22.20;77.50;;;;;;5009164;28;20045;-64
2023/04/22 10:57:14;;;;;;;9.70;4.60;;;22.30;74.30;;;;;;5009320;28;20057;-64
2023/04/22 10:59:54;;;;;;;7.47;4.95;;;22.30;77.70;;;;;;5013786;28;20046;-64
2023/04/22 11:02:20;;;;;;;6.72;4.60;;;22.20;77.20;;;;;;4991570;28;20049;-63
2023/04/22 11:04:46;;;;;;;11.38;4.70;;;;;;;;;;4993134;28;20057;-63
2023/04/22 11:07:30;;;;;;;8.13;4.72;;;22.20;72.90;;;;;;4996015;28;20386;-63
2023/04/22 11:10:05;;;;;;;6.93;4.75;;;22.10;76.30;;;;;;5014317;28;20050;-63
2023/04/22 11:12:34;;;;;;;7.22;4.60;;;22.30;72.90;;;;;;5013641;28;20133;-63
2023/04/22 11:15:17;;;;;;;7.47;5.05;;;22.20;77.70;;;;;;5010429;28;20054;-65
2023/04/22 11:17:48;;;;;;;8.80;4.47;;;22.30;77.80;;;;;;5010148;28;20049;-65
2023/04/22 11:20:17;;;;;;;6.80;4.90;;;22.10;77.60;;;;;;5008337;28;20042;-63
2023/04/22 11:22:45;;;;;;;7.03;4.93;;;22.10;74.40;;;;;;5013044;28;20041;-67
2023/04/22 11:25:11;;;;;;;7.40;4.70;;;22.20;77.50;;;;;;5010889;28;20222;-63
2023/04/22 11:27:42;;;;;;;8.13;4.80;;;21.80;77.20;;;;;;5002783;28;20875;-62
2023/04/22 11:30:13;;;;;;;6.38;4.53;;;22.10;73.00;;;;;;5008646;28;20046;-63
2023/04/22 11:32:50;;;;;;;9.43;5.28;;;22.20;77.70;;;;;;5002335;28;20097;-63
2023/04/22 11:35:26;;;;;;;7.38;4.80;;;22.20;74.20;;;;;;5008537;28;20057;-64
2023/04/22 11:37:57;;;;;;;6.75;4.15;;;22.40;72.50;;;;;;5012643;28;20046;-62
2023/04/22 11:40:40;;;;;;;7.25;4.45;;;22.40;77.30;;;;;;5018751;28;20176;-62
2023/04/22 11:43:06;;;;;;;7.25;4.28;;;22.10;73.50;;;;;;5005770;28;20124;-63
2023/04/22 11:45:33;;;;;;;8.50;4.22;;;22.30;77.30;;;;;;5006630;28;20125;-63
2023/04/22 11:48:00;;;;;;;7.07;4.25;;;22.30;73.00;;;;;;5007252;28;20049;-71
2023/04/22 11:50:30;;;;;;;9.95;4.05;;;22.20;73.80;;;;;;5003335;28;20741;-62
2023/04/22 11:52:57;;;;;;;14.98;3.75;;;22.30;73.80;;;;;;5010496;28;20054;-64
2023/04/22 11:55:29;;;;;;;9.07;3.92;;;22.40;77.10;;;;;;5013541;28;20049;-63
2023/04/22 11:58:06;;;;;;;11.93;4.35;;;22.50;77.30;;;;;;5012382;28;20510;-63
2023/04/22 12:00:35;;;;;;;10.57;3.92;;;22.40;76.90;;;;;;5009274;28;20061;-62
2023/04/22 12:03:13;;;;;;;7.55;3.83;;;22.50;74.00;;;;;;5007375;28;20045;-61
2023/04/22 12:05:40;;;;;;;8.15;3.63;;;22.50;75.30;;;;;;5003777;28;20065;-62
2023/04/22 12:08:11;;;;;;;6.90;3.65;;;22.50;77.30;;;;;;5010585;28;20587;-62
2023/04/22 12:11:04;;;;;;;7.15;3.65;;;22.60;77.20;;;;;;5012342;28;20088;-61
2023/04/22 12:13:33;;;;;;;7.97;3.50;;;22.50;72.50;;;;;;5012060;28;20436;-63
2023/04/22 12:16:01;;;;;;;7.22;3.85;;;22.40;73.90;;;;;;5010217;28;20475;-62
2023/04/22 12:18:34;;;;;;;6.18;4.00;;;22.40;77.20;;;;;;5002540;28;20092;-63
2023/04/22 12:21:11;;;;;;;5.43;3.67;;;22.60;77.30;;;;;;5009656;28;20045;-62
2023/04/22 12:23:48;;;;;;;9.20;4.00;;;22.80;77.30;;;;;;5009824;28;20040;-66
2023/04/22 12:26:17;;;;;;;6.63;3.95;;;22.50;77.20;;;;;;5011724;28;20408;-64
2023/04/22 12:28:44;;;;;;;9.35;4.15;;;22.70;74.60;;;;;;5007962;28;20030;-65
2023/04/22 12:31:10;;;;;;;5.38;3.10;;;22.70;77.20;;;;;;5007972;28;20046;-65
2023/04/22 12:33:36;;;;;;;5.93;3.60;;;22.70;77.20;;;;;;5009465;28;20045;-65
2023/04/22 12:36:02;;;;;;;6.18;3.55;;;;;;;;;;5010210;28;20042;-65
2023/04/22 12:38:28;;;;;;;8.13;4.05;;;;;;;;;;5011782;28;20037;-66
2023/04/22 12:40:54;;;;;;;6.63;3.60;;;22.80;75.50;;;;;;4999191;28;20504;-65
2023/04/22 12:43:20;;;;;;;6.25;3.83;;;22.90;77.20;;;;;;5003537;28;20088;-61
2023/04/22 12:45:46;;;;;;;6.72;3.78;;;22.60;75.40;;;;;;5010743;28;20136;-61
2023/04/22 12:48:12;;;;;;;5.82;3.83;;;;;;;;;;5002430;28;20050;-65
2023/04/22 12:50:39;;;;;;;6.25;3.92;;;22.60;76.80;;;;;;5007701;28;20053;-61
2023/04/22 12:53:04;;;;;;;6.57;3.70;;;22.60;76.70;;;;;;4999069;28;20512;-62
2023/04/22 12:55:30;;;;;;;7.50;4.20;;;22.50;76.70;;;;;;5010896;28;20046;-62
2023/04/22 12:57:56;;;;;;;5.57;3.58;;;22.80;77.00;;;;;;5003126;28;20041;-62
2023/04/22 13:00:23;;;;;;;5.85;3.95;;;22.70;77.00;;;;;;5006895;28;20041;-62
2023/04/22 13:02:49;;;;;;;6.70;3.85;;;22.40;76.90;;;;;;5007043;28;20046;-61
2023/04/22 13:05:16;;;;;;;9.82;3.92;;;22.70;73.90;;;;;;4990101;28;20050;-65
2023/04/22 13:07:41;;;;;;;6.97;4.53;;;22.60;77.10;;;;;;5011270;28;20115;-63
2023/04/22 13:10:11;;;;;;;36.97;5.97;;;22.60;77.10;;;;;;5006622;28;20042;-66
2023/04/22 13:12:38;;;;;;;30.45;5.47;;;22.50;77.10;;;;;;5011354;28;20408;-64